createdAt,value
2017-10-16T00:02:09.892Z,9.30
2017-10-16T00:04:37.501Z,9.30
2017-10-16T00:07:05.021Z,9.30
2017-10-16T00:09:33.997Z,9.20
2017-10-16T00:12:02.333Z,9.20
2017-10-16T00:14:29.842Z,9.20
2017-10-16T00:16:59.084Z,9.30
2017-10-16T00:19:26.655Z,9.30
2017-10-16T00:21:54.210Z,9.30
2017-10-16T00:24:22.716Z,9.20
2017-10-16T00:26:50.252Z,9.10
2017-10-16T00:29:17.768Z,9.10
2017-10-16T00:31:46.111Z,9.10
2017-10-16T00:34:13.616Z,9.10
2017-10-16T00:36:42.802Z,9.10
2017-10-16T00:39:11.142Z,9.10
2017-10-16T00:41:38.668Z,9.10
2017-10-16T00:44:06.739Z,9.10
2017-10-16T00:46:34.312Z,9.00
2017-10-16T00:49:01.833Z,9.00
2017-10-16T00:51:29.339Z,9.00
2017-10-16T00:54:01.129Z,9.20
2017-10-16T00:56:28.796Z,9.20
2017-10-16T00:58:56.293Z,9.20
2017-10-16T01:01:24.064Z,9.10
2017-10-16T01:03:51.617Z,9.10
2017-10-16T01:06:19.133Z,9.10
2017-10-16T01:08:50.304Z,9.10
2017-10-16T01:11:17.888Z,9.10
2017-10-16T01:13:45.948Z,9.00
2017-10-16T01:16:13.454Z,8.90
2017-10-16T01:18:41.023Z,9.00
2017-10-16T01:21:08.536Z,9.10
2017-10-16T01:23:40.082Z,9.20
2017-10-16T01:26:07.786Z,9.30
2017-10-16T01:28:35.404Z,9.30
2017-10-16T01:31:02.932Z,9.20
2017-10-16T01:33:30.436Z,9.00
2017-10-16T01:35:58.559Z,8.90
2017-10-16T01:38:26.872Z,9.00
2017-10-16T01:40:54.433Z,9.00
2017-10-16T01:43:21.955Z,8.90
2017-10-16T01:45:50.239Z,9.00
2017-10-16T01:48:18.049Z,9.00
2017-10-16T01:50:45.555Z,9.10
2017-10-16T01:53:13.172Z,9.00
2017-10-16T01:55:40.719Z,9.00
2017-10-16T01:58:08.247Z,8.90
2017-10-16T02:00:35.753Z,8.80
2017-10-16T02:03:03.308Z,8.80
2017-10-16T02:05:30.844Z,8.80
2017-10-16T02:07:58.387Z,8.80
2017-10-16T02:10:25.959Z,8.80
2017-10-16T02:12:53.531Z,8.80
2017-10-16T02:15:21.605Z,8.90
2017-10-16T02:17:49.434Z,8.90
2017-10-16T02:20:16.966Z,8.90
2017-10-16T02:22:45.235Z,8.80
2017-10-16T02:25:12.795Z,8.80
2017-10-16T02:27:40.785Z,8.80
2017-10-16T02:30:09.097Z,8.80
2017-10-16T02:32:36.657Z,8.80
2017-10-16T02:35:05.241Z,8.90
2017-10-16T02:37:32.946Z,8.90
2017-10-16T02:40:00.487Z,8.90
2017-10-16T02:42:28.036Z,8.90
2017-10-16T02:44:55.584Z,8.90
2017-10-16T02:47:23.156Z,8.80
2017-10-16T02:49:50.684Z,8.80
2017-10-16T02:52:19.268Z,8.80
2017-10-16T02:54:46.820Z,8.80
2017-10-16T02:57:15.104Z,9.00
2017-10-16T02:59:43.412Z,8.90
2017-10-16T03:02:11.235Z,8.90
2017-10-16T03:04:38.771Z,8.90
2017-10-16T03:07:06.292Z,8.80
2017-10-16T03:09:38.061Z,8.80
2017-10-16T03:12:05.697Z,8.80
2017-10-16T03:14:33.456Z,8.80
2017-10-16T03:17:01.079Z,8.80
2017-10-16T03:19:29.370Z,8.70
2017-10-16T03:21:57.691Z,8.60
2017-10-16T03:24:25.439Z,8.70
2017-10-16T03:26:52.983Z,8.70
2017-10-16T03:29:20.495Z,8.60
2017-10-16T03:31:48.805Z,8.50
2017-10-16T03:34:17.444Z,8.50
2017-10-16T03:36:44.995Z,8.50
2017-10-16T03:39:12.547Z,8.50
2017-10-16T03:41:40.069Z,8.40
2017-10-16T03:44:07.583Z,8.40
2017-10-16T03:46:35.154Z,8.40
2017-10-16T03:49:02.668Z,8.40
2017-10-16T03:51:30.800Z,8.40
2017-10-16T03:53:58.431Z,8.40
2017-10-16T03:56:25.943Z,8.40
2017-10-16T03:58:53.555Z,8.50
2017-10-16T04:01:21.135Z,8.50
2017-10-16T04:03:49.667Z,8.50
2017-10-16T04:06:17.166Z,8.40
2017-10-16T04:08:44.876Z,8.40
2017-10-16T04:11:12.396Z,8.30
2017-10-16T04:13:44.487Z,8.40
2017-10-16T04:16:12.893Z,8.40
2017-10-16T04:18:40.423Z,8.40
2017-10-16T04:21:09.621Z,8.50
2017-10-16T04:23:37.947Z,8.50
2017-10-16T04:26:05.452Z,8.40
2017-10-16T04:28:34.705Z,8.40
2017-10-16T04:31:02.223Z,8.40
2017-10-16T04:33:29.905Z,8.40
2017-10-16T04:35:57.514Z,8.40
2017-10-16T04:38:25.055Z,8.40
2017-10-16T04:40:54.132Z,8.40
2017-10-16T04:43:25.542Z,8.40
2017-10-16T04:45:53.890Z,8.40
2017-10-16T04:48:21.572Z,8.50
2017-10-16T04:50:49.163Z,8.50
2017-10-16T04:53:16.668Z,8.40
2017-10-16T04:55:44.471Z,8.40
2017-10-16T04:58:14.071Z,8.40
2017-10-16T05:00:43.259Z,8.30
2017-10-16T05:03:10.768Z,8.30
2017-10-16T05:05:38.337Z,8.40
2017-10-16T05:08:05.873Z,8.40
2017-10-16T05:10:33.438Z,8.40
2017-10-16T05:13:04.914Z,8.40
2017-10-16T05:15:33.673Z,8.50
2017-10-16T05:18:01.249Z,8.50
2017-10-16T05:20:28.795Z,8.50
2017-10-16T05:22:56.368Z,8.50
2017-10-16T05:25:23.960Z,8.50
2017-10-16T05:27:51.690Z,8.60
2017-10-16T05:30:19.234Z,8.50
2017-10-16T05:32:46.738Z,8.50
2017-10-16T05:35:14.291Z,8.50
2017-10-16T05:37:42.022Z,8.50
2017-10-16T05:40:09.544Z,8.60
2017-10-16T05:42:42.144Z,8.60
2017-10-16T05:45:09.693Z,8.70
2017-10-16T05:47:37.216Z,8.70
2017-10-16T05:50:04.776Z,8.70
2017-10-16T05:52:32.296Z,8.70
2017-10-16T05:55:00.473Z,8.70
2017-10-16T05:57:31.928Z,8.70
2017-10-16T05:59:59.438Z,8.70
2017-10-16T06:02:27.874Z,8.70
2017-10-16T06:04:55.393Z,8.80
2017-10-16T06:07:22.934Z,8.80
2017-10-16T06:09:51.453Z,8.90
2017-10-16T06:12:19.212Z,8.80
2017-10-16T06:14:46.769Z,8.90
2017-10-16T06:17:14.580Z,9.00
2017-10-16T06:19:42.988Z,9.10
2017-10-16T06:22:10.547Z,9.10
2017-10-16T06:24:39.749Z,9.20
2017-10-16T06:27:07.251Z,9.20
2017-10-16T06:29:38.175Z,9.20
2017-10-16T06:32:05.681Z,9.30
2017-10-16T06:34:34.927Z,9.40
2017-10-16T06:37:02.502Z,9.40
2017-10-16T06:39:30.057Z,9.40
2017-10-16T06:41:57.575Z,9.50
2017-10-16T06:44:25.079Z,9.60
2017-10-16T06:46:52.634Z,9.60
2017-10-16T06:49:20.195Z,9.60
2017-10-16T06:51:48.215Z,9.70
2017-10-16T06:54:15.728Z,9.80
2017-10-16T06:56:43.232Z,9.90
2017-10-16T06:59:10.786Z,10.00
2017-10-16T07:01:39.068Z,10.10
2017-10-16T07:04:07.278Z,10.10
2017-10-16T07:06:34.808Z,10.20
2017-10-16T07:09:02.371Z,10.30
2017-10-16T07:11:29.882Z,10.40
2017-10-16T07:14:01.564Z,10.40
2017-10-16T07:16:29.067Z,10.50
2017-10-16T07:18:56.599Z,10.60
2017-10-16T07:21:24.920Z,10.70
2017-10-16T07:23:52.483Z,10.70
2017-10-16T07:26:20.024Z,10.80
2017-10-16T07:28:55.199Z,10.90
2017-10-16T07:31:22.719Z,11.00
2017-10-16T07:33:50.301Z,11.10
2017-10-16T07:36:17.816Z,11.20
2017-10-16T07:38:45.362Z,11.30
2017-10-16T07:41:12.932Z,11.40
2017-10-16T07:43:42.131Z,11.60
2017-10-16T07:46:13.295Z,11.60
2017-10-16T07:48:41.931Z,11.70
2017-10-16T07:51:09.725Z,11.90
2017-10-16T07:53:37.516Z,12.00
2017-10-16T07:56:05.242Z,12.00
2017-10-16T07:58:33.072Z,12.10
2017-10-16T08:01:01.697Z,12.30
2017-10-16T08:03:29.204Z,12.30
2017-10-16T08:05:56.776Z,12.40
2017-10-16T08:08:24.323Z,12.50
2017-10-16T08:10:51.877Z,12.60
2017-10-16T08:13:20.851Z,12.80
2017-10-16T08:15:52.634Z,12.80
2017-10-16T08:18:20.677Z,12.90
2017-10-16T08:20:48.208Z,13.00
2017-10-16T08:23:16.491Z,13.20
2017-10-16T08:25:44.079Z,13.20
2017-10-16T08:28:11.600Z,13.30
2017-10-16T08:30:39.434Z,13.40
2017-10-16T08:33:06.984Z,13.50
2017-10-16T08:35:35.191Z,13.60
2017-10-16T08:38:02.749Z,13.70
2017-10-16T08:40:31.763Z,14.00
2017-10-16T08:43:00.080Z,14.10
2017-10-16T08:45:31.619Z,14.10
2017-10-16T08:47:59.551Z,14.20
2017-10-16T08:50:27.058Z,14.30
2017-10-16T08:52:54.608Z,14.50
2017-10-16T08:55:22.127Z,14.60
2017-10-16T08:57:50.458Z,14.80
2017-10-16T09:00:18.395Z,14.80
2017-10-16T09:02:45.973Z,14.90
2017-10-16T09:05:13.530Z,15.00
2017-10-16T09:07:41.224Z,15.10
2017-10-16T09:10:08.728Z,15.20
2017-10-16T09:12:36.314Z,15.40
2017-10-16T09:15:03.829Z,15.40
2017-10-16T09:17:33.086Z,15.60
2017-10-16T09:20:00.952Z,15.60
2017-10-16T09:22:28.508Z,15.70
2017-10-16T09:24:56.943Z,15.80
2017-10-16T09:27:24.449Z,16.00
2017-10-16T09:29:52.015Z,16.00
2017-10-16T09:32:19.531Z,16.20
2017-10-16T09:34:47.360Z,16.30
2017-10-16T09:37:14.931Z,16.40
2017-10-16T09:39:42.450Z,16.50
2017-10-16T09:42:10.891Z,16.50
2017-10-16T09:44:38.440Z,16.60
2017-10-16T09:47:05.987Z,16.80
2017-10-16T09:49:33.590Z,16.90
2017-10-16T09:52:01.277Z,17.00
2017-10-16T09:54:29.708Z,17.10
2017-10-16T09:56:58.039Z,17.20
2017-10-16T09:59:25.543Z,17.20
2017-10-16T10:01:54.764Z,17.40
2017-10-16T10:04:22.303Z,17.40
2017-10-16T10:06:50.579Z,17.60
2017-10-16T10:09:19.053Z,17.60
2017-10-16T10:11:47.403Z,17.80
2017-10-16T10:14:14.960Z,17.80
2017-10-16T10:16:46.425Z,17.90
2017-10-16T10:19:14.083Z,18.00
2017-10-16T10:21:41.897Z,18.10
2017-10-16T10:24:09.407Z,18.20
2017-10-16T10:26:36.938Z,18.20
2017-10-16T10:29:04.487Z,18.40
2017-10-16T10:31:32.104Z,18.50
2017-10-16T10:33:59.632Z,18.60
2017-10-16T10:36:28.070Z,18.60
2017-10-16T10:38:55.922Z,18.70
2017-10-16T10:41:23.550Z,18.80
2017-10-16T10:43:53.488Z,19.00
2017-10-16T10:46:21.074Z,19.00
2017-10-16T10:48:48.595Z,19.10
2017-10-16T10:51:17.834Z,19.20
2017-10-16T10:53:45.342Z,19.20
2017-10-16T10:56:12.898Z,19.40
2017-10-16T10:58:42.153Z,19.50
2017-10-16T11:01:09.662Z,19.50
2017-10-16T11:03:37.938Z,19.60
2017-10-16T11:06:06.408Z,19.60
2017-10-16T11:08:33.983Z,19.70
2017-10-16T11:11:02.304Z,19.80
2017-10-16T11:13:29.858Z,19.80
2017-10-16T11:15:57.363Z,19.90
2017-10-16T11:18:25.539Z,20.00
2017-10-16T11:20:53.310Z,20.00
2017-10-16T11:23:20.860Z,20.10
2017-10-16T11:25:48.567Z,20.10
2017-10-16T11:28:16.214Z,20.20
2017-10-16T11:30:44.390Z,20.30
2017-10-16T11:33:11.887Z,20.30
2017-10-16T11:35:39.430Z,20.40
2017-10-16T11:38:06.984Z,20.40
2017-10-16T11:40:34.499Z,20.50
2017-10-16T11:43:02.050Z,20.60
2017-10-16T11:45:29.551Z,20.60
2017-10-16T11:47:57.076Z,20.70
2017-10-16T11:50:28.558Z,20.80
2017-10-16T11:52:56.130Z,20.90
2017-10-16T11:55:23.722Z,21.00
2017-10-16T11:57:51.295Z,21.00
2017-10-16T12:00:18.840Z,21.10
2017-10-16T12:02:46.359Z,21.10
2017-10-16T12:05:13.935Z,21.10
2017-10-16T12:07:42.124Z,21.10
2017-10-16T12:10:09.678Z,21.20
2017-10-16T12:12:37.325Z,21.20
2017-10-16T12:15:04.844Z,21.20
2017-10-16T12:17:33.171Z,21.40
2017-10-16T12:20:00.989Z,21.30
2017-10-16T12:22:28.599Z,21.40
2017-10-16T12:24:56.763Z,21.40
2017-10-16T12:27:24.338Z,21.40
2017-10-16T12:29:52.618Z,21.50
2017-10-16T12:32:20.340Z,21.60
2017-10-16T12:34:47.854Z,21.60
2017-10-16T12:37:15.354Z,21.70
2017-10-16T12:39:43.721Z,21.80
2017-10-16T12:42:12.007Z,21.90
2017-10-16T12:44:39.516Z,21.80
2017-10-16T12:47:07.269Z,21.90
2017-10-16T12:49:34.830Z,22.00
2017-10-16T12:52:02.491Z,21.90
2017-10-16T12:54:30.039Z,22.00
2017-10-16T12:56:59.655Z,22.00
2017-10-16T12:59:27.208Z,22.00
2017-10-16T13:01:54.711Z,22.10
2017-10-16T13:04:24.007Z,22.20
2017-10-16T13:06:55.337Z,22.20
2017-10-16T13:09:23.431Z,22.20
2017-10-16T13:11:50.992Z,22.30
2017-10-16T13:14:19.027Z,22.30
2017-10-16T13:16:46.535Z,22.30
2017-10-16T13:19:14.086Z,22.40
2017-10-16T13:21:43.296Z,22.40
2017-10-16T13:24:10.859Z,22.40
2017-10-16T13:26:39.157Z,22.50
2017-10-16T13:29:08.395Z,22.50
2017-10-16T13:31:35.903Z,22.50
2017-10-16T13:34:03.504Z,22.50
2017-10-16T13:36:31.007Z,22.50
2017-10-16T13:39:00.356Z,22.50
2017-10-16T13:41:27.911Z,22.50
2017-10-16T13:43:55.443Z,22.50
2017-10-16T13:46:22.991Z,22.50
2017-10-16T13:48:52.056Z,22.50
2017-10-16T13:51:19.566Z,22.50
2017-10-16T13:53:51.628Z,22.50
2017-10-16T13:56:19.138Z,22.50
2017-10-16T13:58:46.649Z,22.50
2017-10-16T14:01:14.198Z,22.50
2017-10-16T14:03:41.744Z,22.50
2017-10-16T14:06:12.915Z,22.50
2017-10-16T14:08:41.369Z,22.50
2017-10-16T14:11:09.668Z,22.50
2017-10-16T14:13:37.188Z,22.50
2017-10-16T14:16:06.493Z,22.50
2017-10-16T14:18:34.804Z,22.50
2017-10-16T14:21:02.484Z,22.50
2017-10-16T14:23:30.690Z,22.50
2017-10-16T14:25:58.196Z,22.50
2017-10-16T14:28:26.113Z,22.50
2017-10-16T14:30:53.655Z,22.50
2017-10-16T14:33:21.170Z,22.40
2017-10-16T14:35:52.896Z,22.40
2017-10-16T14:38:21.218Z,22.30
2017-10-16T14:40:48.811Z,22.30
2017-10-16T14:43:16.337Z,22.20
2017-10-16T14:45:44.547Z,22.20
2017-10-16T14:48:12.083Z,22.20
2017-10-16T14:50:39.629Z,22.10
2017-10-16T14:53:07.164Z,22.10
2017-10-16T14:55:34.707Z,22.10
2017-10-16T14:58:03.923Z,22.00
2017-10-16T15:00:31.466Z,22.00
2017-10-16T15:02:59.788Z,21.90
2017-10-16T15:05:29.019Z,21.90
2017-10-16T15:07:56.552Z,21.90
2017-10-16T15:10:24.113Z,21.90
2017-10-16T15:12:51.630Z,21.80
2017-10-16T15:15:19.188Z,21.70
2017-10-16T15:17:46.719Z,21.60
2017-10-16T15:20:14.284Z,21.60
2017-10-16T15:22:47.119Z,21.40
2017-10-16T15:25:14.628Z,21.40
2017-10-16T15:27:43.599Z,21.30
2017-10-16T15:30:11.104Z,21.30
2017-10-16T15:32:39.400Z,21.10
2017-10-16T15:35:07.832Z,21.10
2017-10-16T15:37:35.473Z,21.10
2017-10-16T15:40:03.007Z,21.00
2017-10-16T15:42:30.762Z,20.90
2017-10-16T15:44:58.329Z,20.80
2017-10-16T15:47:26.759Z,20.80
2017-10-16T15:49:54.255Z,20.60
2017-10-16T15:52:21.829Z,20.50
2017-10-16T15:54:52.661Z,20.50
2017-10-16T15:57:20.226Z,20.40
2017-10-16T15:59:47.806Z,20.20
2017-10-16T16:02:15.991Z,20.10
2017-10-16T16:04:43.583Z,19.90
2017-10-16T16:07:11.091Z,19.70
2017-10-16T16:09:38.707Z,19.50
2017-10-16T16:12:07.013Z,19.20
2017-10-16T16:14:35.020Z,19.20
2017-10-16T16:17:02.647Z,19.10
2017-10-16T16:19:30.208Z,18.90
2017-10-16T16:21:58.328Z,18.70
2017-10-16T16:24:25.864Z,18.60
2017-10-16T16:26:53.363Z,18.40
2017-10-16T16:29:20.923Z,18.30
2017-10-16T16:31:49.078Z,18.20
2017-10-16T16:34:17.387Z,17.80
2017-10-16T16:36:44.965Z,17.80
2017-10-16T16:39:13.466Z,17.70
2017-10-16T16:41:41.495Z,17.50
2017-10-16T16:44:09.020Z,17.40
2017-10-16T16:46:36.547Z,17.30
2017-10-16T16:49:04.143Z,17.10
2017-10-16T16:51:31.643Z,17.00
2017-10-16T16:53:59.158Z,16.90
2017-10-16T16:56:26.735Z,16.80
2017-10-16T16:58:54.301Z,16.70
2017-10-16T17:01:21.832Z,16.60
2017-10-16T17:03:49.350Z,16.50
2017-10-16T17:06:16.923Z,16.40
2017-10-16T17:08:44.515Z,16.30
2017-10-16T17:11:12.806Z,16.20
2017-10-16T17:13:40.847Z,16.20
2017-10-16T17:16:08.434Z,16.10
2017-10-16T17:18:35.956Z,15.90
2017-10-16T17:21:03.740Z,15.90
2017-10-16T17:23:31.304Z,15.80
2017-10-16T17:25:59.569Z,15.70
2017-10-16T17:28:27.100Z,15.60
2017-10-16T17:30:54.882Z,15.60
2017-10-16T17:33:22.413Z,15.50
2017-10-16T17:35:52.176Z,15.40
2017-10-16T17:38:19.782Z,15.30
2017-10-16T17:40:47.384Z,15.20
2017-10-16T17:43:14.967Z,15.20
2017-10-16T17:45:44.483Z,15.10
2017-10-16T17:48:12.315Z,15.10
2017-10-16T17:50:40.174Z,15.00
2017-10-16T17:53:08.808Z,14.90
2017-10-16T17:55:36.768Z,14.90
2017-10-16T17:58:04.861Z,14.80
2017-10-16T18:00:33.707Z,14.80
2017-10-16T18:03:01.377Z,14.80
2017-10-16T18:05:29.939Z,14.70
2017-10-16T18:07:58.393Z,14.70
2017-10-16T18:10:26.023Z,14.60
2017-10-16T18:12:54.632Z,14.50
2017-10-16T18:15:22.870Z,14.50
2017-10-16T18:17:50.379Z,14.40
2017-10-16T18:20:17.945Z,14.40
2017-10-16T18:22:45.584Z,14.30
2017-10-16T18:25:13.232Z,14.30
2017-10-16T18:27:40.773Z,14.20
2017-10-16T18:30:08.384Z,14.20
2017-10-16T18:32:37.227Z,14.10
2017-10-16T18:35:04.748Z,14.10
2017-10-16T18:37:32.321Z,14.00
2017-10-16T18:40:00.752Z,13.90
2017-10-16T18:42:29.096Z,13.80
2017-10-16T18:44:56.616Z,13.80
2017-10-16T18:47:24.128Z,13.70
2017-10-16T18:49:51.747Z,13.70
2017-10-16T18:52:21.092Z,13.70
2017-10-16T18:54:48.609Z,13.60
2017-10-16T18:57:16.416Z,13.60
2017-10-16T18:59:44.859Z,13.60
2017-10-16T19:02:12.546Z,13.60
2017-10-16T19:04:40.083Z,13.50
2017-10-16T19:07:07.624Z,13.50
2017-10-16T19:09:35.164Z,13.40
2017-10-16T19:12:02.689Z,13.50
2017-10-16T19:14:30.227Z,13.50
2017-10-16T19:16:59.490Z,13.50
2017-10-16T19:19:27.005Z,13.50
2017-10-16T19:21:54.723Z,13.60
2017-10-16T19:24:22.345Z,13.60
2017-10-16T19:26:49.862Z,13.60
2017-10-16T19:29:18.773Z,13.50
2017-10-16T19:31:46.316Z,13.50
2017-10-16T19:34:14.631Z,13.40
2017-10-16T19:36:43.118Z,13.30
2017-10-16T19:39:10.636Z,13.30
2017-10-16T19:41:38.995Z,13.10
2017-10-16T19:44:07.067Z,13.10
2017-10-16T19:46:34.596Z,13.10
2017-10-16T19:49:02.164Z,13.00
2017-10-16T19:51:29.739Z,13.10
2017-10-16T19:53:57.276Z,13.10
2017-10-16T19:56:28.423Z,13.00
2017-10-16T19:58:56.985Z,13.00
2017-10-16T20:01:24.855Z,13.00
2017-10-16T20:03:52.799Z,13.00
2017-10-16T20:06:22.743Z,12.80
2017-10-16T20:08:50.301Z,12.80
2017-10-16T20:11:18.998Z,12.90
2017-10-16T20:13:46.672Z,12.90
2017-10-16T20:16:15.789Z,12.90
2017-10-16T20:18:43.560Z,12.90
2017-10-16T20:21:12.074Z,12.90
2017-10-16T20:23:40.179Z,12.90
2017-10-16T20:26:08.003Z,12.80
2017-10-16T20:28:36.738Z,12.70
2017-10-16T20:31:06.209Z,12.60
2017-10-16T20:33:34.221Z,12.60
2017-10-16T20:36:02.320Z,12.50
2017-10-16T20:38:30.788Z,12.40
2017-10-16T20:40:59.086Z,12.40
2017-10-16T20:43:26.827Z,12.40
2017-10-16T20:45:56.171Z,12.20
2017-10-16T20:48:24.328Z,12.20
2017-10-16T20:50:53.820Z,12.00
2017-10-16T20:53:21.479Z,12.00
2017-10-16T20:55:50.931Z,11.90
2017-10-16T20:58:18.464Z,11.90
2017-10-16T21:00:45.983Z,11.80
2017-10-16T21:03:13.556Z,11.80
2017-10-16T21:05:41.300Z,11.70
2017-10-16T21:08:10.326Z,11.50
2017-10-16T21:10:37.891Z,11.50
2017-10-16T21:13:06.172Z,11.40
2017-10-16T21:15:34.021Z,11.40
2017-10-16T21:18:02.439Z,11.30
2017-10-16T21:20:30.051Z,11.30
2017-10-16T21:22:57.609Z,11.30
2017-10-16T21:25:25.129Z,11.20
2017-10-16T21:27:57.089Z,11.20
2017-10-16T21:30:24.595Z,11.10
2017-10-16T21:32:53.017Z,11.20
2017-10-16T21:35:22.210Z,11.20
2017-10-16T21:37:49.719Z,11.30
2017-10-16T21:40:17.226Z,11.40
2017-10-16T21:42:44.792Z,11.40
2017-10-16T21:45:12.910Z,11.40
2017-10-16T21:47:40.447Z,11.40
2017-10-16T21:50:08.003Z,11.30
2017-10-16T21:52:35.526Z,11.30
2017-10-16T21:55:03.056Z,11.30
2017-10-16T21:57:30.646Z,11.30
2017-10-16T21:59:58.249Z,11.30
2017-10-16T22:02:25.823Z,11.20
2017-10-16T22:04:53.338Z,11.20
2017-10-16T22:07:24.683Z,11.10
2017-10-16T22:09:52.224Z,10.90
2017-10-16T22:12:19.781Z,10.80
2017-10-16T22:14:47.329Z,10.80
2017-10-16T22:17:16.527Z,10.70
2017-10-16T22:19:44.066Z,10.70
2017-10-16T22:22:11.604Z,10.70
2017-10-16T22:24:39.175Z,10.60
2017-10-16T22:27:06.728Z,10.60
2017-10-16T22:29:34.547Z,10.70
2017-10-16T22:32:02.121Z,10.70
2017-10-16T22:34:29.831Z,10.70
2017-10-16T22:36:57.363Z,10.70
2017-10-16T22:39:24.925Z,10.60
2017-10-16T22:41:52.816Z,10.60
2017-10-16T22:44:23.295Z,10.60
2017-10-16T22:46:55.178Z,10.60
2017-10-16T22:49:22.720Z,10.60
2017-10-16T22:51:50.268Z,10.70
2017-10-16T22:54:29.714Z,10.70
2017-10-16T22:56:57.236Z,10.80
2017-10-16T22:59:24.842Z,10.90
2017-10-16T23:01:52.379Z,10.80
2017-10-16T23:04:20.693Z,10.80
2017-10-16T23:06:48.300Z,10.80
2017-10-16T23:09:16.575Z,10.80
2017-10-16T23:11:45.772Z,10.80
2017-10-16T23:14:13.322Z,10.80
2017-10-16T23:16:41.651Z,10.70
2017-10-16T23:19:10.132Z,10.60
2017-10-16T23:21:37.676Z,10.60
2017-10-16T23:24:05.351Z,10.50
2017-10-16T23:26:32.896Z,10.40
2017-10-16T23:29:00.444Z,10.50
2017-10-16T23:31:33.862Z,10.60
2017-10-16T23:34:01.404Z,10.60
2017-10-16T23:36:29.464Z,10.50
2017-10-16T23:38:56.995Z,10.40
2017-10-16T23:41:24.611Z,10.40
2017-10-16T23:43:52.111Z,10.40
2017-10-16T23:46:19.627Z,10.40
2017-10-16T23:48:47.168Z,10.40
2017-10-16T23:51:14.748Z,10.40
2017-10-16T23:53:42.421Z,10.30
2017-10-16T23:56:09.935Z,10.30
2017-10-16T23:58:38.687Z,10.10
